Startpagina
METAR-TAF:

METAR-TAF

Vliegvelden :

Tarauacá, Acre, Brazilië

breedte: 08-10S, lengte: 070-46W, hoogte: 190 m

Actueel weer

Dit bericht is 47 minuten geleden gemaakt, om 09:00 UTC
Wind 2 kt uit variabele richting
Temperatuur 24°C
Vochtigheid 100%
Druk 1010 hPa
Zicht 10 km of meer
Verspreide wolken op 400 ft
Gebroken wolken op 2400 ft
Geheel bewolkt op 2800 ft

METAR: SBTK 290900Z AUTO VRB02KT 9999 SCT004 BKN024 OVC028 24/24 Q1010

Tijdstip: 04:47 (09:47 UTC)


TAF: ontbreekt

Waarnemingen en weersverwachtingen van meer dan 4000 vliegvelden (METAR en TAF).

De beschikbare stations zijn de gele en rode punten op de kaart.

Ga met uw muis naar het station om de naam te zien.

Klik dan om waarnemingen en weersverwachtingen te zien.

kaart wijzigen: klik op de groene knoppen met een zwart kruis om in te zoomen, op de groene knop met een streepje om uit te zoomen of op de groene pijlen voor aangrenzende kaarten.


METAR-TAF: